sensor_id;sensor_type;location;lat;lon;timestamp;temperature;humidity
19888;DHT22;10106;51.332;12.336;2022-08-05T00:00:33;24.50;75.30
19888;DHT22;10106;51.332;12.336;2022-08-05T00:02:58;24.50;76.40
19888;DHT22;10106;51.332;12.336;2022-08-05T00:05:24;24.40;77.40
19888;DHT22;10106;51.332;12.336;2022-08-05T00:07:49;24.50;78.90
19888;DHT22;10106;51.332;12.336;2022-08-05T00:10:15;24.40;80.00
19888;DHT22;10106;51.332;12.336;2022-08-05T00:12:40;24.30;81.00
19888;DHT22;10106;51.332;12.336;2022-08-05T00:15:06;24.30;82.80
19888;DHT22;10106;51.332;12.336;2022-08-05T00:17:32;24.20;83.90
19888;DHT22;10106;51.332;12.336;2022-08-05T00:19:57;24.10;85.70
19888;DHT22;10106;51.332;12.336;2022-08-05T00:22:23;24.10;87.50
19888;DHT22;10106;51.332;12.336;2022-08-05T00:24:48;24.10;90.20
19888;DHT22;10106;51.332;12.336;2022-08-05T00:27:14;24.10;90.90
19888;DHT22;10106;51.332;12.336;2022-08-05T00:29:39;24.10;92.20
19888;DHT22;10106;51.332;12.336;2022-08-05T00:32:05;24.10;93.60
19888;DHT22;10106;51.332;12.336;2022-08-05T00:34:31;24.00;95.30
19888;DHT22;10106;51.332;12.336;2022-08-05T00:36:56;24.00;96.90
19888;DHT22;10106;51.332;12.336;2022-08-05T00:39:21;24.00;98.30
19888;DHT22;10106;51.332;12.336;2022-08-05T00:41:47;24.00;99.40
19888;DHT22;10106;51.332;12.336;2022-08-05T00:44:12;23.90;99.90
19888;DHT22;10106;51.332;12.336;2022-08-05T00:46:38;23.90;99.90
19888;DHT22;10106;51.332;12.336;2022-08-05T00:49:04;23.90;99.90
19888;DHT22;10106;51.332;12.336;2022-08-05T00:51:29;23.80;99.90
19888;DHT22;10106;51.332;12.336;2022-08-05T00:53:57;23.70;99.90
19888;DHT22;10106;51.332;12.336;2022-08-05T00:56:23;23.70;99.90
19888;DHT22;10106;51.332;12.336;2022-08-05T00:58:48;23.60;99.90
19888;DHT22;10106;51.332;12.336;2022-08-05T01:01:14;23.60;99.90
19888;DHT22;10106;51.332;12.336;2022-08-05T01:03:40;23.60;99.90
19888;DHT22;10106;51.332;12.336;2022-08-05T01:06:05;23.60;99.90
19888;DHT22;10106;51.332;12.336;2022-08-05T01:08:31;23.50;99.90
19888;DHT22;10106;51.332;12.336;2022-08-05T01:10:58;23.50;99.90
19888;DHT22;10106;51.332;12.336;2022-08-05T01:16:21;23.40;99.90
19888;DHT22;10106;51.332;12.336;2022-08-05T01:18:49;23.40;99.90
19888;DHT22;10106;51.332;12.336;2022-08-05T01:29:20;23.30;99.90
19888;DHT22;10106;51.332;12.336;2022-08-05T01:31:50;23.30;99.90
19888;DHT22;10106;51.332;12.336;2022-08-05T01:36:45;23.20;99.90
19888;DHT22;10106;51.332;12.336;2022-08-05T01:39:11;23.10;99.90
19888;DHT22;10106;51.332;12.336;2022-08-05T01:41:37;23.10;99.90
19888;DHT22;10106;51.332;12.336;2022-08-05T01:44:03;23.10;99.90
19888;DHT22;10106;51.332;12.336;2022-08-05T01:46:31;23.10;99.90
19888;DHT22;10106;51.332;12.336;2022-08-05T01:48:57;23.00;99.90
19888;DHT22;10106;51.332;12.336;2022-08-05T01:51:24;23.00;99.90
19888;DHT22;10106;51.332;12.336;2022-08-05T01:53:51;23.00;99.90
19888;DHT22;10106;51.332;12.336;2022-08-05T01:56:17;22.90;99.90
19888;DHT22;10106;51.332;12.336;2022-08-05T01:58:43;22.80;99.90
19888;DHT22;10106;51.332;12.336;2022-08-05T02:01:09;22.80;99.90
19888;DHT22;10106;51.332;12.336;2022-08-05T02:03:36;22.80;99.90
19888;DHT22;10106;51.332;12.336;2022-08-05T02:06:03;22.70;99.90
19888;DHT22;10106;51.332;12.336;2022-08-05T02:16:19;22.60;99.90
19888;DHT22;10106;51.332;12.336;2022-08-05T02:18:52;22.60;99.90
19888;DHT22;10106;51.332;12.336;2022-08-05T02:21:21;22.50;99.90
19888;DHT22;10106;51.332;12.336;2022-08-05T02:23:51;22.50;99.90
19888;DHT22;10106;51.332;12.336;2022-08-05T02:26:22;22.40;99.90
19888;DHT22;10106;51.332;12.336;2022-08-05T02:28:48;22.40;99.90
19888;DHT22;10106;51.332;12.336;2022-08-05T02:31:14;22.30;99.90
19888;DHT22;10106;51.332;12.336;2022-08-05T02:33:45;22.30;99.90
19888;DHT22;10106;51.332;12.336;2022-08-05T02:36:12;22.30;99.90
19888;DHT22;10106;51.332;12.336;2022-08-05T02:38:40;22.20;99.90
19888;DHT22;10106;51.332;12.336;2022-08-05T02:41:07;22.20;99.90
19888;DHT22;10106;51.332;12.336;2022-08-05T02:43:33;22.20;99.90
19888;DHT22;10106;51.332;12.336;2022-08-05T02:46:00;22.10;99.90
19888;DHT22;10106;51.332;12.336;2022-08-05T02:48:26;22.10;99.90
19888;DHT22;10106;51.332;12.336;2022-08-05T02:50:52;22.10;99.90
19888;DHT22;10106;51.332;12.336;2022-08-05T02:53:18;22.00;99.90
19888;DHT22;10106;51.332;12.336;2022-08-05T02:55:47;22.00;99.90
19888;DHT22;10106;51.332;12.336;2022-08-05T02:58:14;21.90;99.90
19888;DHT22;10106;51.332;12.336;2022-08-05T03:00:40;22.00;99.90
19888;DHT22;10106;51.332;12.336;2022-08-05T03:03:06;22.00;99.90
19888;DHT22;10106;51.332;12.336;2022-08-05T03:05:32;21.90;99.90
19888;DHT22;10106;51.332;12.336;2022-08-05T03:07:58;21.90;99.90
19888;DHT22;10106;51.332;12.336;2022-08-05T03:10:23;21.90;99.90
19888;DHT22;10106;51.332;12.336;2022-08-05T03:12:49;21.90;99.90
19888;DHT22;10106;51.332;12.336;2022-08-05T03:15:15;21.80;99.90
19888;DHT22;10106;51.332;12.336;2022-08-05T03:17:40;21.90;99.90
19888;DHT22;10106;51.332;12.336;2022-08-05T03:20:06;21.90;99.90
19888;DHT22;10106;51.332;12.336;2022-08-05T03:22:32;21.90;99.90
19888;DHT22;10106;51.332;12.336;2022-08-05T03:24:57;21.90;99.90
19888;DHT22;10106;51.332;12.336;2022-08-05T03:27:23;22.00;99.90
19888;DHT22;10106;51.332;12.336;2022-08-05T03:29:49;22.00;99.90
19888;DHT22;10106;51.332;12.336;2022-08-05T03:32:15;22.00;99.90
19888;DHT22;10106;51.332;12.336;2022-08-05T03:34:41;22.00;99.90
19888;DHT22;10106;51.332;12.336;2022-08-05T03:37:07;22.00;99.90
19888;DHT22;10106;51.332;12.336;2022-08-05T03:39:32;21.90;99.90
19888;DHT22;10106;51.332;12.336;2022-08-05T03:41:58;21.90;99.90
19888;DHT22;10106;51.332;12.336;2022-08-05T03:44:24;21.90;99.90
19888;DHT22;10106;51.332;12.336;2022-08-05T03:46:49;21.90;99.90
19888;DHT22;10106;51.332;12.336;2022-08-05T03:49:15;21.90;99.90
19888;DHT22;10106;51.332;12.336;2022-08-05T03:51:53;21.90;99.90
19888;DHT22;10106;51.332;12.336;2022-08-05T03:56:49;21.90;99.90
19888;DHT22;10106;51.332;12.336;2022-08-05T03:59:22;21.80;99.90
19888;DHT22;10106;51.332;12.336;2022-08-05T04:01:48;21.80;99.90
19888;DHT22;10106;51.332;12.336;2022-08-05T04:04:15;21.90;99.90
19888;DHT22;10106;51.332;12.336;2022-08-05T04:06:41;21.90;99.90
19888;DHT22;10106;51.332;12.336;2022-08-05T04:09:07;22.00;99.90
19888;DHT22;10106;51.332;12.336;2022-08-05T04:11:33;22.00;99.90
19888;DHT22;10106;51.332;12.336;2022-08-05T04:13:59;22.10;99.90
19888;DHT22;10106;51.332;12.336;2022-08-05T04:16:25;22.20;99.90
19888;DHT22;10106;51.332;12.336;2022-08-05T04:18:50;22.20;99.90
19888;DHT22;10106;51.332;12.336;2022-08-05T04:21:16;22.20;99.90
19888;DHT22;10106;51.332;12.336;2022-08-05T04:23:42;22.20;99.90
19888;DHT22;10106;51.332;12.336;2022-08-05T04:26:08;22.30;99.90
19888;DHT22;10106;51.332;12.336;2022-08-05T04:28:34;22.30;99.90
19888;DHT22;10106;51.332;12.336;2022-08-05T04:30:59;22.30;99.90
19888;DHT22;10106;51.332;12.336;2022-08-05T04:33:25;22.40;99.90
19888;DHT22;10106;51.332;12.336;2022-08-05T04:35:50;22.50;99.90
19888;DHT22;10106;51.332;12.336;2022-08-05T04:38:16;22.60;99.90
19888;DHT22;10106;51.332;12.336;2022-08-05T04:40:41;22.80;99.90
19888;DHT22;10106;51.332;12.336;2022-08-05T04:43:07;22.90;99.90
19888;DHT22;10106;51.332;12.336;2022-08-05T04:45:33;23.00;99.90
19888;DHT22;10106;51.332;12.336;2022-08-05T04:48:17;23.30;99.90
19888;DHT22;10106;51.332;12.336;2022-08-05T04:50:44;23.60;99.90
19888;DHT22;10106;51.332;12.336;2022-08-05T04:53:11;23.80;99.90
19888;DHT22;10106;51.332;12.336;2022-08-05T04:55:39;23.70;99.90
19888;DHT22;10106;51.332;12.336;2022-08-05T04:58:07;23.70;99.90
19888;DHT22;10106;51.332;12.336;2022-08-05T05:05:43;24.50;99.90
19888;DHT22;10106;51.332;12.336;2022-08-05T05:08:09;25.10;99.90
19888;DHT22;10106;51.332;12.336;2022-08-05T05:10:45;25.80;99.90
19888;DHT22;10106;51.332;12.336;2022-08-05T05:13:14;26.40;99.90
19888;DHT22;10106;51.332;12.336;2022-08-05T05:15:40;26.80;99.90
19888;DHT22;10106;51.332;12.336;2022-08-05T05:18:06;27.00;99.90
19888;DHT22;10106;51.332;12.336;2022-08-05T05:20:33;26.80;99.90
19888;DHT22;10106;51.332;12.336;2022-08-05T05:23:00;26.50;99.90
19888;DHT22;10106;51.332;12.336;2022-08-05T05:25:27;26.00;99.90
19888;DHT22;10106;51.332;12.336;2022-08-05T05:27:52;25.80;99.90
19888;DHT22;10106;51.332;12.336;2022-08-05T05:30:18;25.70;99.90
19888;DHT22;10106;51.332;12.336;2022-08-05T05:32:45;25.50;99.90
19888;DHT22;10106;51.332;12.336;2022-08-05T05:35:10;25.30;99.90
19888;DHT22;10106;51.332;12.336;2022-08-05T05:37:53;25.10;99.90
19888;DHT22;10106;51.332;12.336;2022-08-05T05:40:21;25.10;99.90
19888;DHT22;10106;51.332;12.336;2022-08-05T05:42:50;24.80;99.90
19888;DHT22;10106;51.332;12.336;2022-08-05T05:45:16;24.90;99.90
19888;DHT22;10106;51.332;12.336;2022-08-05T05:47:43;25.30;99.90
19888;DHT22;10106;51.332;12.336;2022-08-05T05:50:18;25.60;99.90
19888;DHT22;10106;51.332;12.336;2022-08-05T05:52:45;26.00;99.90
19888;DHT22;10106;51.332;12.336;2022-08-05T05:55:12;26.30;99.90
19888;DHT22;10106;51.332;12.336;2022-08-05T05:57:39;26.40;99.90
19888;DHT22;10106;51.332;12.336;2022-08-05T06:00:07;27.20;99.90
19888;DHT22;10106;51.332;12.336;2022-08-05T06:02:33;28.30;99.90
19888;DHT22;10106;51.332;12.336;2022-08-05T06:04:59;29.30;99.90
19888;DHT22;10106;51.332;12.336;2022-08-05T06:09:50;29.90;99.90
19888;DHT22;10106;51.332;12.336;2022-08-05T06:12:18;30.80;99.90
19888;DHT22;10106;51.332;12.336;2022-08-05T06:14:44;31.40;99.90
19888;DHT22;10106;51.332;12.336;2022-08-05T06:17:12;32.30;98.40
19888;DHT22;10106;51.332;12.336;2022-08-05T06:19:38;31.50;97.60
19888;DHT22;10106;51.332;12.336;2022-08-05T06:22:06;30.40;99.00
19888;DHT22;10106;51.332;12.336;2022-08-05T06:24:33;29.40;99.90
19888;DHT22;10106;51.332;12.336;2022-08-05T06:26:59;28.50;99.90
19888;DHT22;10106;51.332;12.336;2022-08-05T06:29:24;27.60;99.90
19888;DHT22;10106;51.332;12.336;2022-08-05T06:31:51;26.90;99.90
19888;DHT22;10106;51.332;12.336;2022-08-05T06:34:17;26.20;99.90
19888;DHT22;10106;51.332;12.336;2022-08-05T06:36:42;25.60;99.90
19888;DHT22;10106;51.332;12.336;2022-08-05T06:39:08;25.10;99.90
19888;DHT22;10106;51.332;12.336;2022-08-05T06:41:34;24.80;99.90
19888;DHT22;10106;51.332;12.336;2022-08-05T06:43:59;24.50;99.90
19888;DHT22;10106;51.332;12.336;2022-08-05T06:46:25;24.20;99.90
19888;DHT22;10106;51.332;12.336;2022-08-05T06:48:51;23.90;99.90
19888;DHT22;10106;51.332;12.336;2022-08-05T06:51:16;23.70;99.90
19888;DHT22;10106;51.332;12.336;2022-08-05T06:53:42;23.50;99.90
19888;DHT22;10106;51.332;12.336;2022-08-05T06:56:07;23.40;99.90
19888;DHT22;10106;51.332;12.336;2022-08-05T06:58:33;23.50;99.90
19888;DHT22;10106;51.332;12.336;2022-08-05T07:01:00;23.50;99.90
19888;DHT22;10106;51.332;12.336;2022-08-05T07:03:27;23.60;99.90
19888;DHT22;10106;51.332;12.336;2022-08-05T07:05:53;23.90;99.90
19888;DHT22;10106;51.332;12.336;2022-08-05T07:08:19;24.00;99.90
19888;DHT22;10106;51.332;12.336;2022-08-05T07:10:49;24.10;99.90
19888;DHT22;10106;51.332;12.336;2022-08-05T07:13:17;24.20;99.90
19888;DHT22;10106;51.332;12.336;2022-08-05T07:16:01;24.30;99.90
19888;DHT22;10106;51.332;12.336;2022-08-05T07:18:45;24.50;99.90
19888;DHT22;10106;51.332;12.336;2022-08-05T07:21:11;24.70;99.90
19888;DHT22;10106;51.332;12.336;2022-08-05T07:23:36;25.00;99.90
19888;DHT22;10106;51.332;12.336;2022-08-05T07:26:03;25.20;99.90
19888;DHT22;10106;51.332;12.336;2022-08-05T07:28:29;25.20;99.90
19888;DHT22;10106;51.332;12.336;2022-08-05T07:30:54;25.10;99.90
19888;DHT22;10106;51.332;12.336;2022-08-05T07:33:20;25.20;99.90
19888;DHT22;10106;51.332;12.336;2022-08-05T07:35:47;25.40;99.90
19888;DHT22;10106;51.332;12.336;2022-08-05T07:38:16;25.60;99.90
19888;DHT22;10106;51.332;12.336;2022-08-05T07:40:42;25.80;99.90
19888;DHT22;10106;51.332;12.336;2022-08-05T07:43:11;26.20;99.90
19888;DHT22;10106;51.332;12.336;2022-08-05T07:45:41;27.00;99.90
19888;DHT22;10106;51.332;12.336;2022-08-05T07:48:09;27.10;99.90
19888;DHT22;10106;51.332;12.336;2022-08-05T07:50:34;26.90;99.90
19888;DHT22;10106;51.332;12.336;2022-08-05T07:53:03;26.80;99.90
19888;DHT22;10106;51.332;12.336;2022-08-05T07:55:29;26.70;99.90
19888;DHT22;10106;51.332;12.336;2022-08-05T07:57:56;26.80;99.90
19888;DHT22;10106;51.332;12.336;2022-08-05T08:00:22;27.10;99.90
19888;DHT22;10106;51.332;12.336;2022-08-05T08:02:47;27.10;99.90
19888;DHT22;10106;51.332;12.336;2022-08-05T08:05:14;28.00;99.90
19888;DHT22;10106;51.332;12.336;2022-08-05T08:07:39;28.80;99.90
19888;DHT22;10106;51.332;12.336;2022-08-05T08:10:06;28.80;99.90
19888;DHT22;10106;51.332;12.336;2022-08-05T08:12:31;29.00;99.90
19888;DHT22;10106;51.332;12.336;2022-08-05T08:15:01;29.10;99.90
19888;DHT22;10106;51.332;12.336;2022-08-05T08:17:26;29.00;99.90
19888;DHT22;10106;51.332;12.336;2022-08-05T08:19:52;28.90;99.90
19888;DHT22;10106;51.332;12.336;2022-08-05T08:22:23;29.70;99.90
19888;DHT22;10106;51.332;12.336;2022-08-05T08:24:49;30.20;99.90
19888;DHT22;10106;51.332;12.336;2022-08-05T08:27:15;30.00;99.90
19888;DHT22;10106;51.332;12.336;2022-08-05T08:29:40;29.70;99.90
19888;DHT22;10106;51.332;12.336;2022-08-05T08:32:06;29.70;99.90
19888;DHT22;10106;51.332;12.336;2022-08-05T08:34:32;30.20;99.90
19888;DHT22;10106;51.332;12.336;2022-08-05T08:36:57;32.80;99.90
19888;DHT22;10106;51.332;12.336;2022-08-05T08:39:23;35.70;95.40
19888;DHT22;10106;51.332;12.336;2022-08-05T08:41:49;36.20;90.90
19888;DHT22;10106;51.332;12.336;2022-08-05T08:44:18;34.20;91.00
19888;DHT22;10106;51.332;12.336;2022-08-05T08:46:44;32.50;92.90
19888;DHT22;10106;51.332;12.336;2022-08-05T08:49:14;31.40;94.50
19888;DHT22;10106;51.332;12.336;2022-08-05T08:51:41;30.30;96.00
19888;DHT22;10106;51.332;12.336;2022-08-05T08:54:07;29.30;97.90
19888;DHT22;10106;51.332;12.336;2022-08-05T08:56:37;28.50;99.90
19888;DHT22;10106;51.332;12.336;2022-08-05T08:59:03;28.10;99.90
19888;DHT22;10106;51.332;12.336;2022-08-05T09:01:31;28.20;99.90
19888;DHT22;10106;51.332;12.336;2022-08-05T09:03:56;28.20;99.90
19888;DHT22;10106;51.332;12.336;2022-08-05T09:06:28;30.60;99.90
19888;DHT22;10106;51.332;12.336;2022-08-05T09:08:54;33.30;98.70
19888;DHT22;10106;51.332;12.336;2022-08-05T09:11:21;35.30;95.20
19888;DHT22;10106;51.332;12.336;2022-08-05T09:13:49;36.40;91.00
19888;DHT22;10106;51.332;12.336;2022-08-05T09:16:15;35.50;90.70
19888;DHT22;10106;51.332;12.336;2022-08-05T09:18:41;36.50;87.00
19888;DHT22;10106;51.332;12.336;2022-08-05T09:21:09;37.70;82.80
19888;DHT22;10106;51.332;12.336;2022-08-05T09:23:34;38.40;80.00
19888;DHT22;10106;51.332;12.336;2022-08-05T09:26:10;38.70;76.70
19888;DHT22;10106;51.332;12.336;2022-08-05T09:28:38;38.10;73.70
19888;DHT22;10106;51.332;12.336;2022-08-05T09:33:31;33.80;79.80
19888;DHT22;10106;51.332;12.336;2022-08-05T09:36:03;32.20;84.20
19888;DHT22;10106;51.332;12.336;2022-08-05T09:38:29;31.00;87.60
19888;DHT22;10106;51.332;12.336;2022-08-05T09:41:06;30.40;90.70
19888;DHT22;10106;51.332;12.336;2022-08-05T09:43:36;29.80;91.80
19888;DHT22;10106;51.332;12.336;2022-08-05T09:46:04;29.50;93.10
19888;DHT22;10106;51.332;12.336;2022-08-05T09:48:33;29.20;93.80
19888;DHT22;10106;51.332;12.336;2022-08-05T09:51:04;29.00;94.90
19888;DHT22;10106;51.332;12.336;2022-08-05T09:53:47;29.40;95.50
19888;DHT22;10106;51.332;12.336;2022-08-05T09:56:13;29.90;94.90
19888;DHT22;10106;51.332;12.336;2022-08-05T09:58:38;30.30;94.50
19888;DHT22;10106;51.332;12.336;2022-08-05T10:01:06;32.00;92.60
19888;DHT22;10106;51.332;12.336;2022-08-05T10:03:33;32.30;91.50
19888;DHT22;10106;51.332;12.336;2022-08-05T10:06:07;34.00;90.00
19888;DHT22;10106;51.332;12.336;2022-08-05T10:08:37;36.00;84.10
19888;DHT22;10106;51.332;12.336;2022-08-05T10:11:14;35.70;79.90
19888;DHT22;10106;51.332;12.336;2022-08-05T10:13:40;35.00;80.20
19888;DHT22;10106;51.332;12.336;2022-08-05T10:16:27;34.40;80.30
19888;DHT22;10106;51.332;12.336;2022-08-05T10:18:53;33.70;82.00
19888;DHT22;10106;51.332;12.336;2022-08-05T10:21:19;33.00;83.70
19888;DHT22;10106;51.332;12.336;2022-08-05T10:23:46;32.50;84.70
19888;DHT22;10106;51.332;12.336;2022-08-05T10:26:12;31.70;86.50
19888;DHT22;10106;51.332;12.336;2022-08-05T10:28:39;31.20;87.70
19888;DHT22;10106;51.332;12.336;2022-08-05T10:31:05;30.70;89.60
19888;DHT22;10106;51.332;12.336;2022-08-05T10:33:33;30.30;90.90
19888;DHT22;10106;51.332;12.336;2022-08-05T10:36:00;30.00;91.90
19888;DHT22;10106;51.332;12.336;2022-08-05T10:38:30;29.90;92.80
19888;DHT22;10106;51.332;12.336;2022-08-05T10:41:41;29.70;93.30
19888;DHT22;10106;51.332;12.336;2022-08-05T10:44:10;30.10;93.10
19888;DHT22;10106;51.332;12.336;2022-08-05T10:46:53;30.30;93.00
19888;DHT22;10106;51.332;12.336;2022-08-05T10:49:22;30.60;92.80
19888;DHT22;10106;51.332;12.336;2022-08-05T10:51:54;30.80;92.60
19888;DHT22;10106;51.332;12.336;2022-08-05T10:57:06;31.00;92.20
19888;DHT22;10106;51.332;12.336;2022-08-05T10:59:32;30.70;92.40
19888;DHT22;10106;51.332;12.336;2022-08-05T11:02:10;30.50;92.90
19888;DHT22;10106;51.332;12.336;2022-08-05T11:04:46;30.50;92.90
19888;DHT22;10106;51.332;12.336;2022-08-05T11:07:13;31.00;92.40
19888;DHT22;10106;51.332;12.336;2022-08-05T11:09:52;31.40;91.40
19888;DHT22;10106;51.332;12.336;2022-08-05T11:15:06;31.40;91.10
19888;DHT22;10106;51.332;12.336;2022-08-05T11:17:37;31.10;91.40
19888;DHT22;10106;51.332;12.336;2022-08-05T11:22:53;30.70;91.80
19888;DHT22;10106;51.332;12.336;2022-08-05T11:25:37;30.70;91.70
19888;DHT22;10106;51.332;12.336;2022-08-05T11:33:26;29.90;92.50
19888;DHT22;10106;51.332;12.336;2022-08-05T11:35:54;29.90;92.80
19888;DHT22;10106;51.332;12.336;2022-08-05T11:43:53;30.80;91.70
19888;DHT22;10106;51.332;12.336;2022-08-05T11:46:28;30.90;91.80
19888;DHT22;10106;51.332;12.336;2022-08-05T11:48:58;31.10;91.40
19888;DHT22;10106;51.332;12.336;2022-08-05T11:51:26;31.20;91.20
19888;DHT22;10106;51.332;12.336;2022-08-05T11:53:52;31.30;91.00
19888;DHT22;10106;51.332;12.336;2022-08-05T11:56:18;31.10;91.10
19888;DHT22;10106;51.332;12.336;2022-08-05T11:58:46;31.20;91.10
19888;DHT22;10106;51.332;12.336;2022-08-05T12:01:18;31.30;90.90
19888;DHT22;10106;51.332;12.336;2022-08-05T12:03:53;31.40;90.50
19888;DHT22;10106;51.332;12.336;2022-08-05T12:06:24;31.50;90.60
19888;DHT22;10106;51.332;12.336;2022-08-05T12:08:56;31.40;90.10
19888;DHT22;10106;51.332;12.336;2022-08-05T12:11:31;31.30;90.30
19888;DHT22;10106;51.332;12.336;2022-08-05T12:14:05;31.30;90.40
19888;DHT22;10106;51.332;12.336;2022-08-05T12:19:03;31.60;89.70
19888;DHT22;10106;51.332;12.336;2022-08-05T12:21:34;31.70;89.50
19888;DHT22;10106;51.332;12.336;2022-08-05T12:24:01;31.60;88.60
19888;DHT22;10106;51.332;12.336;2022-08-05T12:29:00;31.00;89.10
19888;DHT22;10106;51.332;12.336;2022-08-05T12:31:26;30.70;90.10
19888;DHT22;10106;51.332;12.336;2022-08-05T12:33:52;30.50;90.20
19888;DHT22;10106;51.332;12.336;2022-08-05T12:36:20;30.60;90.00
19888;DHT22;10106;51.332;12.336;2022-08-05T12:38:45;30.80;89.40
19888;DHT22;10106;51.332;12.336;2022-08-05T12:41:12;31.00;88.60
19888;DHT22;10106;51.332;12.336;2022-08-05T12:46:41;31.30;87.40
19888;DHT22;10106;51.332;12.336;2022-08-05T12:49:09;31.80;86.50
19888;DHT22;10106;51.332;12.336;2022-08-05T12:51:55;32.20;85.70
19888;DHT22;10106;51.332;12.336;2022-08-05T12:54:31;33.00;84.70
19888;DHT22;10106;51.332;12.336;2022-08-05T12:59:29;32.90;83.00
19888;DHT22;10106;51.332;12.336;2022-08-05T13:02:03;32.60;83.40
19888;DHT22;10106;51.332;12.336;2022-08-05T13:04:38;32.70;83.60
19888;DHT22;10106;51.332;12.336;2022-08-05T13:07:07;32.80;83.60
19888;DHT22;10106;51.332;12.336;2022-08-05T13:09:41;32.80;83.90
19888;DHT22;10106;51.332;12.336;2022-08-05T13:12:12;32.70;83.30
19888;DHT22;10106;51.332;12.336;2022-08-05T13:14:46;32.60;84.10
19888;DHT22;10106;51.332;12.336;2022-08-05T13:17:25;32.70;83.30
19888;DHT22;10106;51.332;12.336;2022-08-05T13:20:09;32.60;82.70
19888;DHT22;10106;51.332;12.336;2022-08-05T13:22:40;32.50;83.40
19888;DHT22;10106;51.332;12.336;2022-08-05T13:25:09;32.40;83.20
19888;DHT22;10106;51.332;12.336;2022-08-05T13:27:36;32.20;83.10
19888;DHT22;10106;51.332;12.336;2022-08-05T13:30:03;32.00;84.10
19888;DHT22;10106;51.332;12.336;2022-08-05T13:32:31;31.80;85.10
19888;DHT22;10106;51.332;12.336;2022-08-05T13:35:03;31.50;86.30
19888;DHT22;10106;51.332;12.336;2022-08-05T13:37:33;31.20;87.20
19888;DHT22;10106;51.332;12.336;2022-08-05T13:39:59;30.90;86.80
19888;DHT22;10106;51.332;12.336;2022-08-05T13:42:25;30.80;85.80
19888;DHT22;10106;51.332;12.336;2022-08-05T13:44:52;31.00;83.00
19888;DHT22;10106;51.332;12.336;2022-08-05T13:47:22;31.40;81.40
19888;DHT22;10106;51.332;12.336;2022-08-05T13:49:48;31.90;78.60
19888;DHT22;10106;51.332;12.336;2022-08-05T13:52:17;32.30;76.10
19888;DHT22;10106;51.332;12.336;2022-08-05T13:54:43;32.50;75.40
19888;DHT22;10106;51.332;12.336;2022-08-05T13:57:09;32.40;74.80
19888;DHT22;10106;51.332;12.336;2022-08-05T13:59:36;32.10;75.90
19888;DHT22;10106;51.332;12.336;2022-08-05T14:02:11;31.90;75.10
19888;DHT22;10106;51.332;12.336;2022-08-05T14:04:41;31.80;73.00
19888;DHT22;10106;51.332;12.336;2022-08-05T14:07:37;31.70;73.30
19888;DHT22;10106;51.332;12.336;2022-08-05T14:10:05;31.50;73.30
19888;DHT22;10106;51.332;12.336;2022-08-05T14:12:30;31.40;73.00
19888;DHT22;10106;51.332;12.336;2022-08-05T14:14:59;31.40;73.90
19888;DHT22;10106;51.332;12.336;2022-08-05T14:17:25;31.20;73.80
19888;DHT22;10106;51.332;12.336;2022-08-05T14:19:51;31.10;74.10
19888;DHT22;10106;51.332;12.336;2022-08-05T14:22:17;31.00;74.50
19888;DHT22;10106;51.332;12.336;2022-08-05T14:24:42;30.90;74.80
19888;DHT22;10106;51.332;12.336;2022-08-05T14:27:08;31.00;74.70
19888;DHT22;10106;51.332;12.336;2022-08-05T14:29:34;31.00;74.90
19888;DHT22;10106;51.332;12.336;2022-08-05T14:32:00;31.30;74.80
19888;DHT22;10106;51.332;12.336;2022-08-05T14:34:25;31.40;74.70
19888;DHT22;10106;51.332;12.336;2022-08-05T14:36:51;31.40;74.60
19888;DHT22;10106;51.332;12.336;2022-08-05T14:39:16;31.20;75.00
19888;DHT22;10106;51.332;12.336;2022-08-05T14:41:42;31.10;75.50
19888;DHT22;10106;51.332;12.336;2022-08-05T14:44:08;31.10;76.20
19888;DHT22;10106;51.332;12.336;2022-08-05T14:46:34;31.20;75.50
19888;DHT22;10106;51.332;12.336;2022-08-05T14:49:00;31.10;75.30
19888;DHT22;10106;51.332;12.336;2022-08-05T14:51:27;30.90;76.00
19888;DHT22;10106;51.332;12.336;2022-08-05T14:53:52;30.80;76.40
19888;DHT22;10106;51.332;12.336;2022-08-05T14:56:18;30.70;76.90
19888;DHT22;10106;51.332;12.336;2022-08-05T14:58:44;30.70;77.20
19888;DHT22;10106;51.332;12.336;2022-08-05T15:01:09;30.70;77.70
19888;DHT22;10106;51.332;12.336;2022-08-05T15:03:35;30.80;77.80
19888;DHT22;10106;51.332;12.336;2022-08-05T15:06:02;31.00;77.40
19888;DHT22;10106;51.332;12.336;2022-08-05T15:08:28;31.10;76.80
19888;DHT22;10106;51.332;12.336;2022-08-05T15:10:53;31.10;76.10
19888;DHT22;10106;51.332;12.336;2022-08-05T15:13:19;30.90;76.10
19888;DHT22;10106;51.332;12.336;2022-08-05T15:15:45;30.70;76.60
19888;DHT22;10106;51.332;12.336;2022-08-05T15:18:11;30.70;77.10
19888;DHT22;10106;51.332;12.336;2022-08-05T15:20:36;30.60;76.90
19888;DHT22;10106;51.332;12.336;2022-08-05T15:23:08;30.30;76.00
19888;DHT22;10106;51.332;12.336;2022-08-05T15:25:34;29.90;76.60
19888;DHT22;10106;51.332;12.336;2022-08-05T15:28:00;29.70;80.90
19888;DHT22;10106;51.332;12.336;2022-08-05T15:30:26;29.00;91.60
19888;DHT22;10106;51.332;12.336;2022-08-05T15:32:53;28.20;95.00
19888;DHT22;10106;51.332;12.336;2022-08-05T15:35:20;27.60;97.90
19888;DHT22;10106;51.332;12.336;2022-08-05T15:37:46;26.90;99.90
19888;DHT22;10106;51.332;12.336;2022-08-05T15:42:38;25.90;99.90
19888;DHT22;10106;51.332;12.336;2022-08-05T15:45:04;25.60;99.90
19888;DHT22;10106;51.332;12.336;2022-08-05T15:47:30;25.60;99.90
19888;DHT22;10106;51.332;12.336;2022-08-05T15:49:55;25.30;99.90
19888;DHT22;10106;51.332;12.336;2022-08-05T15:52:22;25.20;99.90
19888;DHT22;10106;51.332;12.336;2022-08-05T15:54:48;25.00;99.90
19888;DHT22;10106;51.332;12.336;2022-08-05T15:57:14;24.70;99.90
19888;DHT22;10106;51.332;12.336;2022-08-05T15:59:43;24.40;99.90
19888;DHT22;10106;51.332;12.336;2022-08-05T16:02:08;24.30;99.90
19888;DHT22;10106;51.332;12.336;2022-08-05T16:04:34;24.20;99.90
19888;DHT22;10106;51.332;12.336;2022-08-05T16:07:00;24.00;99.90
19888;DHT22;10106;51.332;12.336;2022-08-05T16:09:25;23.90;99.90
19888;DHT22;10106;51.332;12.336;2022-08-05T16:11:52;23.70;99.90
19888;DHT22;10106;51.332;12.336;2022-08-05T16:14:18;23.60;99.90
19888;DHT22;10106;51.332;12.336;2022-08-05T16:16:44;23.40;99.90
19888;DHT22;10106;51.332;12.336;2022-08-05T16:19:10;23.30;99.90
19888;DHT22;10106;51.332;12.336;2022-08-05T16:21:36;23.20;99.90
19888;DHT22;10106;51.332;12.336;2022-08-05T16:24:02;22.90;99.90